Terminal Aerodrome Forecast
Issued by NWS Knoxville/Tri Cities, TN

Home | Current Version | Previous Version | Text Only | Print | Product List | Glossary On
Versions: 1 2 3 4 5 6 7 8 9 10 11 12 13 14 15 16 17 18
000
FTUS44 KMRX 240524
TAFTRI
TAF
KTRI 240524Z 2406/2506 23007KT P6SM OVC020
     FM241000 23003KT 6SM BR BKN060
     FM241400 24010KT P6SM BKN050
     FM241600 24014G25KT P6SM OVC050
     FM242300 26008KT P6SM BKN050=

USA.gov is the U.S. government's official web portal to all federal, state and local government web resources and services.